Fort Worth - NOAA's Hourly Summary for Saturday, July 7, 2018
Hour Temp
(f)
RH
(%)
Solar Rad.
(MJ/m2)
Rainfall
(in)
Wind
(mph)
7/7/2018 12:00 AM 80 72 0 0 5.57
7/7/2018 1:00 AM 80 72 0 0 3.74
7/7/2018 2:00 AM 79 72 0 0 4.63
7/7/2018 3:00 AM 78 75 0 0 4.55
7/7/2018 4:00 AM 77 78 0 0 4.31
7/7/2018 5:00 AM 76 81 0 0 4.25
7/7/2018 6:00 AM 75 84 0.01 0 4.74
7/7/2018 7:00 AM 76 83 0.28 0 3.75
7/7/2018 8:00 AM 79 73 0.93 0 5.34
7/7/2018 9:00 AM 82 65 1.57 0 5.94
7/7/2018 10:00 AM 85 60 2.18 0 4.82
7/7/2018 11:00 AM 87 56 2.67 0 4.46
7/7/2018 12:00 PM 89 52 2.83 0 6.94
7/7/2018 1:00 PM 90 48 2.97 0 6.09
7/7/2018 2:00 PM 92 44 2.62 0 7.31
7/7/2018 3:00 PM 94 39 2.84 0 8.48
7/7/2018 4:00 PM 93 38 1.82 0 8.24
7/7/2018 5:00 PM 94 37 1.64 0 8.74
7/7/2018 6:00 PM 94 36 1.34 0 9.65
7/7/2018 7:00 PM 93 37 0.59 0 11.52
7/7/2018 8:00 PM 90 43 0.12 0 11.01
7/7/2018 9:00 PM 89 43 0 0 8.33
7/7/2018 10:00 PM 87 47 0 0 7.67
7/7/2018 11:00 PM 86 50 0 0 8.2
Data Summary 85 57 24.41 0.00 6.60